Time;durP1;ratioP1;P1;durP2;ratioP2;P2;SDS_P1;SDS_P2;PMS_P1;PMS_P2;Temp;Humidity;BMP_temperature;BMP_pressure;BME280_temperature;BME280_humidity;BME280_pressure;Samples;Min_cycle;Max_cycle;Signal;HPM_P1;HPM_P2
2022/05/26 00:01:08;;;;;;;7.25;5.03;;;14.50;99.90;;;;;;5033431;28;20022;-74
2022/05/26 00:03:36;;;;;;;6.05;5.45;;;14.50;99.90;;;;;;5031131;28;20031;-74
2022/05/26 00:06:02;;;;;;;7.78;5.05;;;14.60;99.90;;;;;;5032842;28;20033;-73
2022/05/26 00:08:28;;;;;;;10.35;5.40;;;14.60;99.90;;;;;;5031234;28;20021;-73
2022/05/26 00:10:54;;;;;;;5.80;5.03;;;14.60;99.90;;;;;;5032159;28;20144;-74
2022/05/26 00:13:21;;;;;;;6.28;5.35;;;14.60;99.90;;;;;;5032622;28;20039;-74
2022/05/26 00:15:47;;;;;;;10.27;5.50;;;14.60;99.90;;;;;;5030458;28;20041;-74
2022/05/26 00:18:13;;;;;;;6.07;5.25;;;14.60;99.90;;;;;;5030901;28;20022;-74
2022/05/26 00:20:38;;;;;;;7.85;5.47;;;14.60;99.90;;;;;;5030808;28;20048;-74
2022/05/26 00:23:04;;;;;;;9.05;6.10;;;14.60;99.90;;;;;;5032714;28;20030;-75
2022/05/26 00:25:30;;;;;;;9.07;5.30;;;14.60;99.90;;;;;;5032447;28;20013;-74
2022/05/26 00:27:56;;;;;;;8.50;5.65;;;14.50;99.90;;;;;;5032183;28;20040;-73
2022/05/26 00:30:22;;;;;;;7.72;5.28;;;14.60;99.90;;;;;;5033495;28;20026;-73
2022/05/26 00:32:48;;;;;;;7.25;5.80;;;14.60;99.90;;;;;;5031641;28;20112;-73
2022/05/26 00:35:15;;;;;;;9.27;5.65;;;14.60;99.90;;;;;;5031623;28;20164;-73
2022/05/26 00:37:41;;;;;;;7.57;6.63;;;14.60;99.90;;;;;;5033028;28;20021;-74
2022/05/26 00:40:08;;;;;;;11.13;6.55;;;14.60;99.90;;;;;;5027105;28;20413;-74
2022/05/26 00:42:34;;;;;;;10.75;6.20;;;14.60;99.90;;;;;;5018557;28;20030;-75
2022/05/26 00:45:00;;;;;;;8.93;6.40;;;14.60;99.90;;;;;;5011781;28;20032;-75
2022/05/26 00:47:28;;;;;;;12.32;7.32;;;14.50;99.90;;;;;;5011895;28;20026;-74
2022/05/26 00:50:01;;;;;;;9.85;7.25;;;14.50;99.90;;;;;;5011776;28;20061;-76
2022/05/26 00:52:48;;;;;;;13.20;7.43;;;14.60;99.90;;;;;;5011506;28;20057;-75
2022/05/26 00:55:27;;;;;;;9.38;7.35;;;14.50;99.90;;;;;;5011000;28;20025;-77
2022/05/26 00:58:00;;;;;;;8.80;7.00;;;14.60;99.90;;;;;;5010293;28;20026;-75
2022/05/26 01:00:30;;;;;;;14.45;7.25;;;14.50;99.90;;;;;;5011867;28;20061;-76
2022/05/26 01:03:04;;;;;;;13.77;8.03;;;14.60;99.90;;;;;;5012081;28;20081;-74
2022/05/26 01:05:41;;;;;;;8.70;7.18;;;14.60;99.90;;;;;;5013030;28;20049;-74
2022/05/26 01:08:16;;;;;;;13.73;7.93;;;14.60;99.90;;;;;;5013362;28;20057;-74
2022/05/26 01:10:41;;;;;;;9.77;7.82;;;14.50;99.90;;;;;;5013169;28;20028;-73
2022/05/26 01:13:06;;;;;;;10.32;8.43;;;14.50;99.90;;;;;;5011410;28;20117;-74
2022/05/26 01:15:36;;;;;;;13.80;7.93;;;14.50;99.90;;;;;;5013305;28;20063;-73
2022/05/26 01:18:19;;;;;;;9.18;7.80;;;14.50;99.90;;;;;;5011473;28;20026;-73
2022/05/26 01:21:06;;;;;;;13.20;8.13;;;14.50;99.90;;;;;;5012866;28;20049;-73
2022/05/26 01:24:19;;;;;;;17.48;8.55;;;14.60;99.90;;;;;;5012514;28;20428;-74
2022/05/26 01:27:12;;;;;;;11.68;8.65;;;14.50;99.90;;;;;;5013146;28;20018;-73
2022/05/26 01:29:57;;;;;;;11.48;8.35;;;14.50;99.90;;;;;;5013049;28;20028;-73
2022/05/26 01:32:22;;;;;;;13.13;9.27;;;14.50;99.90;;;;;;5011581;28;20022;-73
2022/05/26 01:35:05;;;;;;;13.75;8.35;;;14.50;99.90;;;;;;5013404;28;20024;-73
2022/05/26 01:37:42;;;;;;;10.82;8.35;;;14.50;99.90;;;;;;5012876;28;20096;-72
2022/05/26 01:40:52;;;;;;;12.63;8.77;;;14.50;99.90;;;;;;5014515;28;20432;-72
2022/05/26 01:43:32;;;;;;;11.30;8.30;;;14.50;99.90;;;;;;5017374;28;20094;-73
2022/05/26 01:46:25;;;;;;;13.65;8.73;;;14.50;99.90;;;;;;5019930;28;20026;-73
2022/05/26 01:49:00;;;;;;;18.58;8.93;;;14.50;99.90;;;;;;5016664;28;20037;-72
2022/05/26 01:51:46;;;;;;;12.32;9.15;;;14.50;99.90;;;;;;5014998;28;20113;-73
2022/05/26 01:54:44;;;;;;;11.15;9.45;;;14.50;99.90;;;;;;5015182;28;20032;-74
2022/05/26 01:57:20;;;;;;;16.08;10.60;;;14.40;99.90;;;;;;4999055;28;20470;-73
2022/05/26 01:59:48;;;;;;;14.98;11.40;;;14.40;99.90;;;;;;5016259;28;20054;-73
2022/05/26 02:02:29;;;;;;;12.95;9.98;;;14.40;99.90;;;;;;5016457;28;20102;-72
2022/05/26 02:05:16;;;;;;;16.42;11.13;;;14.30;99.90;;;;;;5016490;28;20022;-73
2022/05/26 02:07:48;;;;;;;15.27;11.27;;;14.30;99.90;;;;;;5014619;28;20072;-73
2022/05/26 02:10:20;;;;;;;14.38;10.93;;;14.30;99.90;;;;;;5014560;28;20018;-73
2022/05/26 02:12:51;;;;;;;15.82;11.25;;;14.20;99.90;;;;;;5015870;28;20068;-73
2022/05/26 02:15:44;;;;;;;16.85;11.57;;;14.20;99.90;;;;;;5015885;28;20030;-73
2022/05/26 02:18:24;;;;;;;14.50;9.98;;;14.20;99.90;;;;;;5016073;28;20046;-74
2022/05/26 02:20:54;;;;;;;13.07;10.73;;;14.30;99.90;;;;;;5015642;28;20113;-73
2022/05/26 02:23:30;;;;;;;15.52;10.43;;;14.30;99.90;;;;;;5015571;28;20026;-73
2022/05/26 02:25:58;;;;;;;14.73;10.02;;;14.30;99.90;;;;;;5015675;28;20026;-73
2022/05/26 02:28:24;;;;;;;13.48;8.88;;;14.20;99.90;;;;;;5016129;28;20436;-73
2022/05/26 02:30:50;;;;;;;11.95;9.00;;;14.20;99.90;;;;;;5016131;28;20028;-73
2022/05/26 02:33:17;;;;;;;16.52;9.00;;;14.20;99.90;;;;;;5016135;28;20041;-74
2022/05/26 02:35:45;;;;;;;14.70;9.77;;;14.20;99.90;;;;;;5015673;28;20092;-75
2022/05/26 02:38:17;;;;;;;16.92;9.82;;;14.20;99.90;;;;;;5015195;28;20558;-74
2022/05/26 02:40:44;;;;;;;15.30;10.65;;;14.10;99.90;;;;;;5015426;28;20109;-74
2022/05/26 02:43:19;;;;;;;19.75;11.15;;;14.00;99.90;;;;;;5015657;28;20476;-74
2022/05/26 02:45:55;;;;;;;17.75;10.95;;;13.90;99.90;;;;;;5015470;28;20037;-73
2022/05/26 02:48:48;;;;;;;16.85;11.35;;;13.90;99.90;;;;;;5014199;28;20040;-74
2022/05/26 02:51:38;;;;;;;12.93;10.82;;;13.80;99.90;;;;;;5014438;28;20018;-74
2022/05/26 02:54:45;;;;;;;15.93;10.63;;;13.80;99.90;;;;;;5015516;28;20037;-74
2022/05/26 02:57:24;;;;;;;17.27;10.93;;;13.80;99.90;;;;;;5015059;28;20131;-73
2022/05/26 03:00:14;;;;;;;18.25;11.20;;;13.70;99.90;;;;;;5015520;28;20084;-73
2022/05/26 03:02:57;;;;;;;15.88;11.00;;;13.70;99.90;;;;;;5013912;28;20400;-72
2022/05/26 03:05:48;;;;;;;15.95;11.45;;;13.70;99.90;;;;;;5018370;28;20029;-73
2022/05/26 03:08:18;;;;;;;15.95;10.27;;;13.60;99.90;;;;;;5017298;28;20026;-73
2022/05/26 03:10:49;;;;;;;14.00;10.77;;;13.70;99.90;;;;;;5018429;28;20228;-73
2022/05/26 03:13:14;;;;;;;18.48;9.70;;;13.70;99.90;;;;;;5015760;28;20018;-73
2022/05/26 03:15:40;;;;;;;11.43;8.93;;;13.70;99.90;;;;;;5014964;28;20498;-74
2022/05/26 03:18:06;;;;;;;10.93;8.82;;;13.70;99.90;;;;;;5015307;28;20052;-73
2022/05/26 03:20:32;;;;;;;13.75;8.50;;;13.70;99.90;;;;;;5013601;28;20457;-74
2022/05/26 03:22:58;;;;;;;12.05;7.60;;;13.70;99.90;;;;;;5067374;22;20053;-74
2022/05/26 03:25:24;;;;;;;11.00;7.38;;;13.70;99.90;;;;;;5040035;28;20096;-73
2022/05/26 03:27:49;;;;;;;9.75;7.00;;;13.70;99.90;;;;;;5021530;28;20109;-73
2022/05/26 03:30:15;;;;;;;8.27;7.10;;;13.70;99.90;;;;;;5039454;28;20080;-73
2022/05/26 03:32:46;;;;;;;9.98;6.80;;;13.70;99.90;;;;;;5039047;28;20032;-73
2022/05/26 03:40:55;;;;;;;11.70;8.02;;;13.70;99.90;;;;;;5053257;28;20035;-73
2022/05/26 03:43:23;;;;;;;11.90;6.72;;;13.80;99.90;;;;;;5038074;28;20486;-73
2022/05/26 03:45:49;;;;;;;8.57;6.70;;;13.80;99.90;;;;;;5020507;28;20390;-73
2022/05/26 03:48:15;;;;;;;11.52;6.95;;;13.80;99.90;;;;;;5038278;28;20025;-73
2022/05/26 03:50:40;;;;;;;13.55;7.82;;;13.80;99.90;;;;;;5018673;28;20025;-73
2022/05/26 03:53:06;;;;;;;14.05;7.35;;;13.90;99.90;;;;;;5036442;28;20036;-73
2022/05/26 03:55:32;;;;;;;13.95;7.47;;;13.90;99.90;;;;;;5035934;28;20033;-73
2022/05/26 03:57:59;;;;;;;12.75;8.18;;;13.90;99.90;;;;;;5035755;28;20083;-73
2022/05/26 04:00:26;;;;;;;12.40;7.90;;;13.90;99.90;;;;;;5036048;28;20026;-73
2022/05/26 04:02:51;;;;;;;15.48;8.57;;;13.80;99.90;;;;;;5035808;28;20021;-74
2022/05/26 04:05:18;;;;;;;10.88;8.05;;;13.90;99.90;;;;;;5035847;28;20075;-73
2022/05/26 04:07:43;;;;;;;15.93;8.82;;;13.90;99.90;;;;;;5017878;28;20022;-73
2022/05/26 04:10:11;;;;;;;18.35;9.73;;;13.90;99.90;;;;;;5018065;28;20431;-72
2022/05/26 04:12:37;;;;;;;15.45;9.63;;;13.90;99.90;;;;;;5036061;28;20115;-72
2022/05/26 04:15:05;;;;;;;16.17;8.85;;;13.80;99.90;;;;;;5036354;28;20037;-73
2022/05/26 04:17:31;;;;;;;16.63;10.15;;;13.80;99.90;;;;;;5035100;28;20083;-72
2022/05/26 04:19:56;;;;;;;17.70;9.85;;;13.90;99.90;;;;;;5035312;28;20025;-73
2022/05/26 04:22:23;;;;;;;15.55;9.43;;;13.90;99.90;;;;;;5035403;28;20083;-73
2022/05/26 04:24:53;;;;;;;16.67;9.82;;;13.90;99.90;;;;;;5035788;28;20025;-73
2022/05/26 04:27:21;;;;;;;15.60;9.75;;;13.90;99.90;;;;;;5035530;28;20025;-73
2022/05/26 04:29:47;;;;;;;23.83;10.95;;;13.90;99.90;;;;;;5035527;28;20072;-72
2022/05/26 04:32:13;;;;;;;21.30;10.13;;;13.90;99.90;;;;;;5035995;28;20499;-73
2022/05/26 04:34:39;;;;;;;22.90;11.48;;;14.00;99.90;;;;;;5018694;28;20040;-72
2022/05/26 04:37:05;;;;;;;21.52;10.80;;;14.10;99.90;;;;;;5018462;28;20506;-72
2022/05/26 04:39:31;;;;;;;18.92;11.18;;;14.10;99.90;;;;;;5035501;28;20029;-72
2022/05/26 04:42:01;;;;;;;19.15;10.45;;;14.00;99.90;;;;;;5035737;28;20040;-72
2022/05/26 04:44:36;;;;;;;18.20;10.60;;;14.10;99.90;;;;;;5016923;28;20032;-73
2022/05/26 04:47:02;;;;;;;21.58;10.90;;;14.10;99.90;;;;;;5017316;28;20032;-73
2022/05/26 04:49:28;;;;;;;19.52;10.32;;;14.20;99.90;;;;;;5035235;28;20018;-73
2022/05/26 04:51:55;;;;;;;24.88;11.43;;;14.30;99.90;;;;;;5018018;28;20158;-73
2022/05/26 04:54:20;;;;;;;25.27;11.73;;;14.30;99.90;;;;;;5035763;28;20125;-73
2022/05/26 04:56:46;;;;;;;18.63;10.60;;;14.40;99.90;;;;;;5035820;28;20037;-73
2022/05/26 04:59:11;;;;;;;16.25;10.05;;;14.50;99.90;;;;;;5035659;28;20034;-74
2022/05/26 05:01:37;;;;;;;24.98;11.10;;;14.50;99.90;;;;;;5035209;28;20033;-73
2022/05/26 05:04:03;;;;;;;22.70;11.40;;;14.60;99.90;;;;;;5035821;28;20113;-73
2022/05/26 05:06:29;;;;;;;18.85;11.60;;;14.60;99.90;;;;;;5035724;28;20425;-72
2022/05/26 05:08:55;;;;;;;18.38;10.63;;;14.70;99.90;;;;;;5034827;28;20022;-73
2022/05/26 05:11:21;;;;;;;16.02;10.52;;;14.70;99.90;;;;;;5035419;28;20025;-72
2022/05/26 05:13:47;;;;;;;21.92;10.07;;;14.70;99.90;;;;;;5036178;28;20036;-73
2022/05/26 05:16:27;;;;;;;21.35;11.00;;;14.70;99.90;;;;;;5039795;28;20029;-72
2022/05/26 05:18:53;;;;;;;20.42;11.50;;;14.80;99.90;;;;;;5021624;28;20173;-72
2022/05/26 05:21:25;;;;;;;23.45;11.75;;;14.90;99.90;;;;;;5039257;28;20033;-72
2022/05/26 05:24:00;;;;;;;18.92;10.70;;;15.00;99.90;;;;;;5022272;28;20022;-72
2022/05/26 05:26:30;;;;;;;24.70;12.00;;;15.00;99.90;;;;;;5040528;28;20026;-72
2022/05/26 05:29:01;;;;;;;22.33;11.15;;;15.10;99.90;;;;;;5039852;28;20104;-72
2022/05/26 05:31:29;;;;;;;;;;;15.10;99.90;;;;;;5023553;28;20093;-72
2022/05/26 05:34:04;;;;;;;30.05;11.70;;;15.00;99.90;;;;;;5023143;28;19905;-72
2022/05/26 05:36:33;;;;;;;31.08;13.05;;;15.00;99.90;;;;;;5042271;28;20069;-73
2022/05/26 05:39:00;;;;;;;28.23;12.60;;;15.00;99.90;;;;;;5042579;28;20052;-73
2022/05/26 05:41:27;;;;;;;25.98;10.80;;;14.90;99.90;;;;;;5045800;28;20029;-73
2022/05/26 05:43:55;;;;;;;24.95;10.90;;;15.00;99.90;;;;;;5029845;28;20032;-74
2022/05/26 05:46:20;;;;;;;36.03;12.45;;;15.00;99.90;;;;;;5048125;28;20032;-73
2022/05/26 05:48:46;;;;;;;22.50;10.75;;;15.00;99.90;;;;;;5046950;28;20026;-72
2022/05/26 05:51:13;;;;;;;24.48;10.95;;;15.10;99.90;;;;;;5041569;28;20403;-72
2022/05/26 05:53:39;;;;;;;28.25;11.90;;;15.20;99.90;;;;;;5038582;28;20037;-73
2022/05/26 05:56:05;;;;;;;31.73;10.90;;;15.20;99.90;;;;;;5038213;28;20052;-73
2022/05/26 05:58:31;;;;;;;24.88;9.93;;;15.20;99.90;;;;;;5038396;28;20108;-73
2022/05/26 06:00:56;;;;;;;21.85;10.45;;;15.30;99.90;;;;;;5038573;28;20084;-73
2022/05/26 06:03:23;;;;;;;23.48;9.90;;;15.40;99.90;;;;;;5037994;28;20036;-74
2022/05/26 06:05:49;;;;;;;26.02;9.65;;;15.50;99.90;;;;;;5038090;28;20060;-73
2022/05/26 06:08:14;;;;;;;32.35;9.68;;;15.60;99.90;;;;;;5038075;28;20025;-73
2022/05/26 06:10:40;;;;;;;21.13;9.73;;;15.70;99.90;;;;;;5038404;28;20491;-73
2022/05/26 06:13:05;;;;;;;20.58;8.10;;;15.70;99.90;;;;;;5037863;28;20052;-73
2022/05/26 06:15:32;;;;;;;17.70;7.20;;;15.80;99.90;;;;;;5038519;28;20035;-72
2022/05/26 06:17:58;;;;;;;21.95;7.97;;;15.80;99.90;;;;;;5039053;28;20071;-72
2022/05/26 06:20:23;;;;;;;15.85;7.13;;;15.80;99.90;;;;;;5038235;28;20022;-73
2022/05/26 06:22:49;;;;;;;21.70;6.80;;;15.90;99.90;;;;;;5019562;28;20163;-73
2022/05/26 06:25:18;;;;;;;22.33;6.82;;;15.80;99.90;;;;;;5037269;28;20029;-73
2022/05/26 06:30:31;;;;;;;22.08;6.30;;;16.00;99.90;;;;;;5037998;28;20032;-73
2022/05/26 06:38:38;;;;;;;20.67;7.00;;;16.30;99.90;;;;;;5037700;28;20082;-72
2022/05/26 06:42:05;;;;;;;18.50;5.68;;;16.40;99.90;;;;;;5037234;28;20037;-73
2022/05/26 06:43:52;;;;;;;17.45;5.28;;;16.40;99.90;;;;;;5036952;28;20021;-72
2022/05/26 06:46:18;;;;;;;16.67;5.50;;;16.30;99.90;;;;;;5037383;28;20025;-72
2022/05/26 06:48:44;;;;;;;19.05;6.40;;;16.30;99.90;;;;;;5038246;28;20380;-73
2022/05/26 06:51:10;;;;;;;20.65;5.80;;;16.40;99.90;;;;;;5037779;28;20033;-72
2022/05/26 06:53:35;;;;;;;12.48;3.63;;;16.40;99.90;;;;;;5038350;28;20029;-72
2022/05/26 06:56:01;;;;;;;13.25;4.50;;;16.50;99.90;;;;;;5037582;28;20048;-72
2022/05/26 06:58:27;;;;;;;14.38;4.50;;;16.50;99.90;;;;;;5037697;28;20079;-72
2022/05/26 07:00:53;;;;;;;13.52;4.13;;;16.50;99.90;;;;;;5019592;28;20124;-73
2022/05/26 07:03:19;;;;;;;11.02;3.92;;;16.60;99.90;;;;;;5020391;28;20029;-73
2022/05/26 07:05:45;;;;;;;12.18;4.07;;;16.70;99.90;;;;;;5037928;28;20033;-73
2022/05/26 07:08:11;;;;;;;10.40;3.88;;;16.80;99.90;;;;;;5037393;28;20025;-73
2022/05/26 07:10:37;;;;;;;17.17;3.67;;;16.90;99.90;;;;;;5038526;28;20030;-73
2022/05/26 07:13:03;;;;;;;12.00;4.32;;;17.00;99.90;;;;;;5019773;28;20072;-74
2022/05/26 07:15:29;;;;;;;13.35;3.20;;;17.20;99.90;;;;;;5019874;28;20441;-73
2022/05/26 07:17:54;;;;;;;12.82;3.28;;;17.40;99.90;;;;;;5037572;28;20144;-73
2022/05/26 07:20:20;;;;;;;11.32;3.42;;;17.40;99.90;;;;;;5037161;28;20029;-73
2022/05/26 07:22:46;;;;;;;12.90;2.92;;;17.40;99.90;;;;;;5037354;28;20083;-72
2022/05/26 07:25:12;;;;;;;9.57;3.00;;;17.40;99.90;;;;;;5038183;28;20026;-72
2022/05/26 07:27:37;;;;;;;9.90;3.17;;;17.40;99.90;;;;;;5037540;28;20104;-72
2022/05/26 07:30:05;;;;;;;13.80;3.10;;;17.40;99.90;;;;;;5037698;28;20545;-72
2022/05/26 07:32:30;;;;;;;11.93;3.40;;;17.30;99.90;;;;;;5037383;28;20124;-73
2022/05/26 07:34:56;;;;;;;11.80;2.50;;;17.30;99.90;;;;;;5037661;28;20061;-73
2022/05/26 07:42:55;;;;;;;10.32;2.60;;;17.80;99.90;;;;;;5042539;28;20047;-73
2022/05/26 07:45:21;;;;;;;6.55;2.50;;;17.80;99.90;;;;;;5037543;28;20494;-73
2022/05/26 07:47:47;;;;;;;5.95;1.70;;;17.50;99.90;;;;;;5040106;28;20033;-73
2022/05/26 07:50:20;;;;;;;8.18;2.60;;;17.30;99.90;;;;;;5036085;28;20035;-74
2022/05/26 07:52:47;;;;;;;5.30;1.60;;;17.30;99.90;;;;;;5036866;28;20021;-73
2022/05/26 07:55:13;;;;;;;5.95;1.50;;;17.40;99.90;;;;;;5036438;28;20030;-72
2022/05/26 07:57:39;;;;;;;9.63;2.30;;;17.20;99.90;;;;;;5037332;28;20021;-73
2022/05/26 08:00:06;;;;;;;10.07;1.83;;;17.30;99.90;;;;;;5040368;28;20036;-73
2022/05/26 08:02:31;;;;;;;8.80;2.00;;;17.40;99.90;;;;;;5022564;28;20026;-73
2022/05/26 08:04:57;;;;;;;7.28;2.47;;;17.40;99.90;;;;;;5042698;28;20391;-73
2022/05/26 08:07:23;;;;;;;7.63;2.13;;;17.50;99.90;;;;;;5008737;28;20034;-73
2022/05/26 08:09:49;;;;;;;11.43;1.52;;;17.70;99.90;;;;;;5019725;28;20108;-73
2022/05/26 08:12:14;;;;;;;6.25;1.58;;;17.60;99.90;;;;;;5047993;28;20021;-72
2022/05/26 08:14:43;;;;;;;7.10;1.92;;;17.70;99.90;;;;;;5048943;28;20086;-72
2022/05/26 08:17:11;;;;;;;5.50;1.30;;;17.90;99.90;;;;;;5032178;28;20037;-73
2022/05/26 08:19:37;;;;;;;5.43;1.63;;;18.00;99.90;;;;;;5028523;28;20048;-73
2022/05/26 08:22:02;;;;;;;4.18;1.52;;;18.00;99.90;;;;;;5045207;28;20060;-73
2022/05/26 08:24:28;;;;;;;6.50;1.65;;;18.10;99.90;;;;;;5047301;28;20037;-72
2022/05/26 08:26:56;;;;;;;9.10;2.00;;;18.00;99.90;;;;;;5037059;28;20107;-72
2022/05/26 08:29:22;;;;;;;6.53;1.63;;;18.10;99.90;;;;;;5016974;28;20026;-73
2022/05/26 08:31:47;;;;;;;4.53;1.40;;;18.00;99.90;;;;;;5027144;28;20392;-73
2022/05/26 08:34:13;;;;;;;7.68;1.42;;;18.10;99.90;;;;;;4999156;28;20502;-72
2022/05/26 08:36:39;;;;;;;6.25;1.30;;;18.30;99.90;;;;;;5026313;28;20026;-73
2022/05/26 08:39:05;;;;;;;8.05;1.30;;;18.40;99.90;;;;;;5032943;28;20108;-73
2022/05/26 08:41:40;;;;;;;4.22;1.27;;;18.60;99.90;;;;;;5017113;28;20031;-72
2022/05/26 08:44:11;;;;;;;4.00;1.33;;;18.40;99.90;;;;;;5035482;28;20072;-72
2022/05/26 08:46:47;;;;;;;10.23;1.60;;;18.30;99.90;;;;;;5035333;28;20104;-73
2022/05/26 08:49:26;;;;;;;3.97;1.48;;;18.40;99.90;;;;;;5017588;28;20030;-72
2022/05/26 08:52:10;;;;;;;3.05;1.10;;;18.30;99.90;;;;;;5035129;28;20017;-72
2022/05/26 08:54:44;;;;;;;7.22;1.38;;;18.00;99.90;;;;;;5018109;28;20545;-73
2022/05/26 08:57:14;;;;;;;5.97;1.48;;;17.90;99.90;;;;;;5033344;28;20390;-73
2022/05/26 08:59:44;;;;;;;6.95;1.35;;;17.70;99.90;;;;;;5014650;28;20080;-72
2022/05/26 09:02:31;;;;;;;5.50;1.13;;;17.80;99.90;;;;;;5032565;28;20462;-72
2022/05/26 09:04:59;;;;;;;4.07;0.90;;;17.80;99.90;;;;;;5032912;28;20116;-73
2022/05/26 09:13:19;;;;;;;5.60;1.40;;;18.20;99.90;;;;;;5030839;28;20186;-73
2022/05/26 09:15:45;;;;;;;5.85;1.27;;;18.40;99.90;;;;;;5038655;28;20535;-72
2022/05/26 09:18:19;;;;;;;8.85;1.58;;;18.30;99.90;;;;;;5033560;28;20075;-72
2022/05/26 09:20:48;;;;;;;6.07;1.20;;;18.10;99.90;;;;;;5031795;28;20050;-73
2022/05/26 09:23:24;;;;;;;4.70;1.20;;;18.10;99.90;;;;;;5034596;28;20039;-73
2022/05/26 09:25:51;;;;;;;2.28;1.13;;;18.10;99.90;;;;;;5016613;28;20372;-74
2022/05/26 09:28:30;;;;;;;9.95;1.85;;;18.10;99.90;;;;;;5032894;28;20497;-74
2022/05/26 09:31:21;;;;;;;9.05;1.20;;;18.10;99.90;;;;;;5065502;22;20045;-69
2022/05/26 09:34:18;;;;;;;5.32;1.05;;;18.10;99.90;;;;;;5061055;28;20068;-69
2022/05/26 09:36:49;;;;;;;7.82;1.45;;;18.10;99.90;;;;;;5058602;28;20075;-69
2022/05/26 09:39:23;;;;;;;4.68;1.23;;;18.10;99.90;;;;;;5065876;28;20508;-70
2022/05/26 09:41:55;;;;;;;1.42;0.90;;;18.20;99.90;;;;;;5050561;28;20032;-69
2022/05/26 09:44:44;;;;;;;4.75;1.50;;;18.50;99.90;;;;;;5030727;28;20071;-69
2022/05/26 09:47:57;;;;;;;7.20;2.00;;;18.70;99.90;;;;;;5050587;28;20028;-70
2022/05/26 09:50:37;;;;;;;5.05;1.65;;;18.70;99.90;;;;;;5016751;28;20036;-69
2022/05/26 09:53:09;;;;;;;10.15;2.22;;;18.40;99.90;;;;;;5051049;28;20017;-70
2022/05/26 09:55:50;;;;;;;6.80;1.77;;;18.20;99.90;;;;;;5056364;28;20032;-70
2022/05/26 09:58:34;;;;;;;4.95;1.30;;;18.10;99.90;;;;;;5051700;28;20093;-71
2022/05/26 10:01:03;;;;;;;4.18;1.08;;;18.00;99.90;;;;;;5054276;28;20021;-71
2022/05/26 10:03:52;;;;;;;1.88;0.68;;;17.80;99.90;;;;;;5055170;28;20032;-71
2022/05/26 10:06:25;;;;;;;3.17;0.80;;;17.60;99.90;;;;;;5037204;28;20025;-71
2022/05/26 10:09:12;;;;;;;3.05;1.35;;;17.80;99.90;;;;;;5053852;28;20024;-70
2022/05/26 10:12:11;;;;;;;1.92;1.00;;;18.00;99.90;;;;;;5055053;28;20029;-70
2022/05/26 10:15:05;;;;;;;2.13;0.88;;;18.30;99.90;;;;;;5054917;28;20071;-70
2022/05/26 10:17:44;;;;;;;3.83;1.65;;;18.40;99.90;;;;;;5054459;28;20033;-71
2022/05/26 10:21:00;;;;;;;5.50;1.08;;;18.60;99.90;;;;;;5054118;28;20021;-71
2022/05/26 10:23:50;;;;;;;5.25;1.10;;;18.50;99.90;;;;;;5013924;28;20635;-70
2022/05/26 10:26:24;;;;;;;6.05;1.13;;;18.40;99.90;;;;;;5054068;28;20078;-70
2022/05/26 10:28:53;;;;;;;3.33;1.17;;;18.30;99.90;;;;;;5055511;28;20025;-70
2022/05/26 10:31:36;;;;;;;10.35;1.48;;;18.40;99.90;;;;;;5055449;28;20036;-70
2022/05/26 10:34:21;;;;;;;4.28;1.48;;;18.50;99.90;;;;;;5055728;28;20126;-70
2022/05/26 10:37:25;;;;;;;5.07;1.05;;;18.50;99.90;;;;;;5059074;28;20473;-71
2022/05/26 10:40:10;;;;;;;1.65;0.80;;;18.70;99.90;;;;;;5059536;28;20025;-70
2022/05/26 10:42:43;;;;;;;3.78;1.13;;;18.90;99.90;;;;;;5058963;28;20075;-71
2022/05/26 10:45:31;;;;;;;2.72;1.20;;;18.90;99.90;;;;;;5055053;28;20021;-71
2022/05/26 10:48:07;;;;;;;4.40;1.17;;;19.00;99.90;;;;;;5047994;28;20086;-70
2022/05/26 10:50:59;;;;;;;10.50;1.20;;;18.70;99.90;;;;;;5045311;28;20109;-70
2022/05/26 10:53:36;;;;;;;;;;;18.50;99.90;;;;;;5026034;28;20117;-69
2022/05/26 10:57:00;;;;;;;4.90;1.00;;;18.40;99.90;;;;;;5043233;28;19992;-70
2022/05/26 10:59:29;;;;;;;4.57;1.15;;;18.40;99.90;;;;;;4966378;28;20029;-70
2022/05/26 11:02:09;;;;;;;2.13;1.17;;;18.40;99.90;;;;;;5041324;28;20456;-69
2022/05/26 11:05:13;;;;;;;5.28;1.15;;;18.50;99.90;;;;;;5040757;28;20022;-69
2022/05/26 11:07:48;;;;;;;5.68;1.20;;;18.60;99.90;;;;;;5049296;28;20505;-69
2022/05/26 11:10:38;;;;;;;3.72;1.42;;;18.70;99.90;;;;;;5045705;28;20045;-69
2022/05/26 11:13:29;;;;;;;3.70;0.77;;;18.70;99.90;;;;;;5026747;28;20553;-69
2022/05/26 11:18:54;;;;;;;2.88;1.02;;;19.10;99.90;;;;;;5046067;28;20556;-69
2022/05/26 11:21:21;;;;;;;8.15;1.23;;;19.20;99.90;;;;;;5026064;28;20514;-68
2022/05/26 11:23:48;;;;;;;3.60;0.75;;;19.20;99.90;;;;;;5045299;28;20021;-69
2022/05/26 11:26:38;;;;;;;4.68;1.00;;;19.00;99.90;;;;;;5043745;28;20541;-68
2022/05/26 11:29:16;;;;;;;6.43;1.15;;;18.90;99.90;;;;;;5049143;28;20041;-68
2022/05/26 11:37:31;;;;;;;4.35;0.93;;;19.30;99.90;;;;;;5047846;28;19950;-69
2022/05/26 11:40:05;;;;;;;2.67;1.08;;;19.50;99.90;;;;;;5045805;28;20455;-68
2022/05/26 11:42:32;;;;;;;3.47;1.20;;;19.50;99.90;;;;;;5045561;28;20032;-68
2022/05/26 11:45:22;;;;;;;2.75;0.82;;;19.50;99.90;;;;;;5047387;28;20051;-68
2022/05/26 11:48:22;;;;;;;5.75;1.83;;;19.40;99.90;;;;;;5051262;28;20366;-69
2022/05/26 11:51:03;;;;;;;4.03;1.20;;;19.20;99.90;;;;;;5048897;28;20036;-68
2022/05/26 11:53:32;;;;;;;0.93;0.68;;;18.90;99.90;;;;;;5033599;28;20127;-69
2022/05/26 11:56:04;;;;;;;3.42;1.30;;;18.80;99.90;;;;;;5051271;28;20176;-68
2022/05/26 11:58:42;;;;;;;6.53;1.02;;;18.80;99.90;;;;;;5051901;28;20162;-70
2022/05/26 12:01:33;;;;;;;3.58;1.00;;;18.70;99.90;;;;;;5053228;28;20024;-70
2022/05/26 12:04:06;;;;;;;7.95;1.65;;;18.60;99.90;;;;;;5049959;28;20499;-70
2022/05/26 12:06:40;;;;;;;4.50;1.13;;;18.50;99.90;;;;;;5050007;28;20017;-70
2022/05/26 12:09:18;;;;;;;5.30;2.33;;;18.70;99.90;;;;;;5053240;28;20100;-68
2022/05/26 12:11:56;;;;;;;3.70;0.95;;;18.90;99.90;;;;;;5051081;28;20045;-68
2022/05/26 12:14:29;;;;;;;4.90;1.20;;;18.80;99.90;;;;;;5036713;28;20021;-69
2022/05/26 12:17:32;;;;;;;4.63;1.65;;;18.80;99.90;;;;;;5056265;28;20025;-69
2022/05/26 12:20:29;;;;;;;6.20;1.40;;;19.00;99.90;;;;;;5052914;28;20087;-69
2022/05/26 12:22:55;;;;;;;6.28;1.65;;;19.10;99.90;;;;;;5035454;28;20553;-69
2022/05/26 12:25:29;;;;;;;6.90;1.50;;;19.30;99.90;;;;;;5052549;28;20381;-69
2022/05/26 12:28:26;;;;;;;3.65;1.15;;;19.50;99.90;;;;;;5054474;28;20040;-69
2022/05/26 12:30:52;;;;;;;3.30;1.00;;;19.40;99.90;;;;;;5053930;28;20087;-69
2022/05/26 12:33:20;;;;;;;3.63;1.10;;;19.50;99.90;;;;;;5052621;28;20032;-69
2022/05/26 12:35:52;;;;;;;4.45;1.23;;;19.70;99.90;;;;;;5054060;28;20051;-69
2022/05/26 12:38:51;;;;;;;2.55;1.05;;;19.70;99.90;;;;;;5052022;28;20021;-69
2022/05/26 12:41:42;;;;;;;3.10;1.00;;;19.70;99.90;;;;;;5049025;28;20025;-69
2022/05/26 12:44:18;;;;;;;2.55;1.10;;;19.70;99.90;;;;;;5052562;28;20485;-69
2022/05/26 12:46:58;;;;;;;5.53;1.17;;;19.70;99.90;;;;;;5052772;28;20021;-69
2022/05/26 12:49:33;;;;;;;2.05;1.40;;;19.60;99.90;;;;;;5050364;28;20032;-69
2022/05/26 12:52:15;;;;;;;2.90;1.10;;;19.70;99.90;;;;;;5049410;28;20884;-69
2022/05/26 12:55:05;;;;;;;8.88;1.25;;;19.80;99.90;;;;;;5052619;28;20107;-68
2022/05/26 12:57:32;;;;;;;4.70;1.25;;;20.10;99.90;;;;;;5051426;28;20024;-69
2022/05/26 13:00:35;;;;;;;3.92;1.10;;;20.20;99.90;;;;;;5049998;28;20114;-69
2022/05/26 13:03:09;;;;;;;5.32;0.93;;;20.00;99.90;;;;;;5056021;28;20037;-69
2022/05/26 13:05:41;;;;;;;5.95;1.38;;;19.80;99.90;;;;;;5034919;28;20039;-69
2022/05/26 13:08:18;;;;;;;3.28;0.82;;;19.70;99.90;;;;;;5052369;28;20075;-69
2022/05/26 13:10:46;;;;;;;4.40;0.93;;;19.60;99.90;;;;;;5034038;28;20032;-68
2022/05/26 13:13:26;;;;;;;6.35;1.13;;;19.50;99.90;;;;;;5050205;28;20030;-69
2022/05/26 13:15:51;;;;;;;6.10;1.85;;;19.60;99.90;;;;;;5052566;28;20033;-69
2022/05/26 13:18:23;;;;;;;4.28;1.52;;;19.60;99.90;;;;;;5052781;28;20022;-69
2022/05/26 13:20:49;;;;;;;3.17;1.10;;;19.70;99.90;;;;;;5046970;28;20116;-69
2022/05/26 13:23:30;;;;;;;8.45;1.40;;;19.60;99.90;;;;;;5052381;28;20027;-69
2022/05/26 13:25:57;;;;;;;3.28;1.10;;;19.50;99.90;;;;;;5053071;28;20017;-69
2022/05/26 13:28:28;;;;;;;3.35;0.85;;;19.30;99.90;;;;;;5052432;28;20044;-69
2022/05/26 13:33:50;;;;;;;2.55;0.80;;;19.00;99.90;;;;;;5052332;28;19915;-69
2022/05/26 13:36:32;;;;;;;4.35;1.20;;;18.80;99.90;;;;;;5053455;28;20029;-70
2022/05/26 13:39:16;;;;;;;4.75;1.17;;;18.80;99.90;;;;;;5038527;28;20367;-69
2022/05/26 13:41:48;;;;;;;3.08;1.00;;;19.00;99.90;;;;;;5052314;28;20029;-69
2022/05/26 13:44:16;;;;;;;;;;;19.00;99.90;;;;;;5051731;28;20095;-68
2022/05/26 13:46:47;;;;;;;4.10;1.20;;;18.90;99.90;;;;;;5054533;28;19908;-69
2022/05/26 13:49:37;;;;;;;5.03;1.67;;;19.00;99.90;;;;;;5055216;28;20059;-69